• Join FlightAware (Why Join?)
  • Login
  • US Flag 
11:30PM EST


 

Airport Tracker/Info


-or-


 

Live Flight TrackerFlight Track Log ✈ N1944E ✈ 24-Jun-2013 ✈ KCOD - KBJC

Flight Track Log - Related Links

Times and Time Zones

All times are in EDT time to prevent confusion due to time zone crossing. See the N1944E flight status page for this flight to view local times or setup timezone preferences in your user account.

Time Position Orientation Groundspeed Altitude Reporting Facility
EDT Latitude Longitude Course Direction KTS MPH feet Rate Location/Type
09:55AM 44.2486 -108.7783 147° Southeast  Level FlightAware Approximate
09:56AM 44.2043 -108.7377 144° Southeast  Level FlightAware Approximate
09:57AM 44.1613 -108.6946 144° Southeast  Level FlightAware Approximate
09:58AM 44.1183 -108.6516 144° Southeast  Level FlightAware Approximate
09:59AM 44.0747 -108.6097 150° Southeast  Level FlightAware Approximate
10:00AM 44.0288 -108.5730 150° Southeast  Level FlightAware Approximate
10:00AM 44.0200 -108.5172 148° Southeast 159 183 18,600  Level Salt Lake Center
10:01AM 43.9839 -108.5339 144° Southeast  Level FlightAware Approximate
10:01AM 43.9781 -108.4869 153° Southeast 177 204 19,100  Level Salt Lake Center
10:02AM 43.9410 -108.4909 144° Southeast  Level FlightAware Approximate
10:02AM 43.9294 -108.4478 150° Southeast 182 209 19,100  Level Salt Lake Center
10:03AM 43.8980 -108.4479 144° Southeast  Level FlightAware Approximate
10:04AM 43.8550 -108.4050 144° Southeast  Level FlightAware Approximate
10:04AM 43.8422 -108.3934 148° Southeast  Level FlightAware Approximate
10:05AM 43.8101 -108.3659 148° Southeast  Level FlightAware Approximate
10:07AM 43.6653 -108.2128 147° Southeast 201 231 19,000  Level Salt Lake Center
10:08AM 43.6150 -108.1647 145° Southeast 199 229 19,000  Level Salt Lake Center
10:09AM 43.5717 -108.1264 147° Southeast 197 227 19,000  Level Salt Lake Center
10:10AM 43.5264 -108.0878 148° Southeast 197 227 19,000  Level Salt Lake Center
10:11AM 43.5263 -108.1248 148° Southeast  Level FlightAware Approximate
10:11AM 43.4814 -108.0472 147° Southeast 197 227 19,000  Level Salt Lake Center
10:12AM 43.4818 -108.0852 147° Southeast  Level FlightAware Approximate
10:13AM 43.4375 -108.0453 147° Southeast  Level FlightAware Approximate
10:13AM 43.4257 -108.0131 156° South  Level FlightAware Approximate
10:14AM 43.3703 -107.9503 156° South 202 232 19,000  Level Denver Center
10:15AM 43.3139 -107.9019 148° Southeast 192 221 19,000  Level Salt Lake Center
10:16AM 43.2703 -107.8644 148° Southeast 193 222 19,000  Level Salt Lake Center
10:17AM 43.2269 -107.8253 147° Southeast 194 223 19,000  Level Salt Lake Center
10:18AM 43.1750 -107.7797 147° Southeast 196 226 19,000  Level Salt Lake Center
10:19AM 43.1317 -107.7414 147° Southeast 195 224 19,000  Level Salt Lake Center
10:20AM 43.0792 -107.6972 148° Southeast 196 226 19,000  Level Salt Lake Center
10:21AM 43.0344 -107.6597 148° Southeast 197 227 19,000  Level Salt Lake Center
10:22AM 42.9892 -107.6214 148° Southeast 198 228 19,000  Level Salt Lake Center
10:23AM 42.9367 -107.5775 149° Southeast 198 228 19,000  Level Salt Lake Center
10:24AM 42.8922 -107.5383 147° Southeast 198 228 19,000  Level Salt Lake Center
10:25AM 42.8408 -107.4914 146° Southeast 198 228 19,000  Level Salt Lake Center
10:26AM 42.7967 -107.4533 148° Southeast 198 228 19,000  Level Salt Lake Center
10:27AM 42.7447 -107.4039 145° Southeast 200 230 19,000  Level Salt Lake Center
10:28AM 42.6997 -107.3639 147° Southeast 201 231 19,000  Level Salt Lake Center
10:29AM 42.6536 -107.3258 149° Southeast 202 232 19,000  Level Salt Lake Center
10:30AM 42.6075 -107.2872 148° Southeast 200 230 19,100  Climbing Denver Center
10:31AM 42.5614 -107.2500 149° Southeast 199 229 19,100  Level Denver Center
10:32AM 42.5069 -107.2044 148° Southeast 205 236 19,100 -60 Level Denver Center
10:33AM 42.4622 -107.1664 148° Southeast 201 231 19,000 -60 Descending Denver Center
10:34AM 42.4192 -107.1269 146° Southeast 197 227 19,000  Level Denver Center
10:35AM 42.3644 -107.0817 149° Southeast 202 232 19,000  Level Denver Center
10:36AM 42.3194 -107.0431 148° Southeast 201 231 19,100  Climbing Denver Center
10:37AM 42.2653 -106.9975 148° Southeast 204 235 19,100  Level Denver Center
10:38AM 42.2197 -106.9583 148° Southeast 203 234 19,100  Level Denver Center
10:39AM 42.1650 -106.9125 148° Southeast 206 237 19,100  Level Denver Center
10:40AM 42.1192 -106.8736 148° Southeast 203 234 19,100  Level Denver Center
10:41AM 42.0661 -106.8286 148° Southeast 203 234 19,100  Level Denver Center
10:42AM 42.0197 -106.7900 148° Southeast 203 234 19,100  Level Denver Center
10:43AM 41.9731 -106.7528 149° Southeast 204 235 19,100  Level Denver Center
10:44AM 41.9197 -106.7075 148° Southeast 203 234 19,100  Level Denver Center
10:46AM 41.8742 -106.6697 148° Southeast 202 232 19,100  Level Denver Center
10:47AM 41.8214 -106.6250 148° Southeast 201 231 19,100  Level Denver Center
10:48AM 41.7750 -106.5883 149° Southeast 202 232 19,100  Level Denver Center
10:49AM 41.7206 -106.5436 148° Southeast 204 235 19,100  Level Denver Center
10:50AM 41.6739 -106.5069 150° Southeast 203 234 19,100  Level Denver Center
10:51AM 41.6211 -106.4622 148° Southeast 202 232 19,100  Level Denver Center
10:52AM 41.5750 -106.4250 149° Southeast 202 232 19,100  Level Denver Center
10:53AM 41.5228 -106.3831 149° Southeast 198 228 19,100  Level Denver Center
10:54AM 41.4758 -106.3458 149° Southeast 203 234 19,100  Level Denver Center
10:55AM 41.4297 -106.3083 149° Southeast 203 234 19,100  Level Denver Center
10:56AM 41.3761 -106.2628 147° Southeast 204 235 19,100  Level Denver Center
10:57AM 41.3303 -106.2250 148° Southeast 203 234 19,100  Level Denver Center
10:58AM 41.2786 -106.1833 149° Southeast 198 228 19,100  Level Denver Center
10:59AM 41.2333 -106.1447 147° Southeast 201 231 19,100  Level Denver Center
11:00AM 41.1875 -106.1078 149° Southeast 200 230 19,100  Level Denver Center
11:02AM 41.0828 -106.0261 150° Southeast 196 226 19,100  Level Denver Center
11:03AM 41.0383 -105.9894 148° Southeast 196 226 19,100  Level Denver Center
11:04AM 40.9856 -105.9486 150° Southeast 200 230 19,100  Level Denver Center
11:05AM 40.9381 -105.9094 148° Southeast 201 231 19,100  Level Denver Center
11:06AM 40.8900 -105.8781 154° Southeast 196 226 19,100 -60 Level Denver Center
11:07AM 40.8439 -105.8422 150° Southeast 195 224 19,000 -420 Descending Denver Center
11:08AM 40.7928 -105.8011 149° Southeast 211 243 18,300 -540 Descending Denver Center
11:09AM 40.7297 -105.7542 151° Southeast 219 252 17,900 -420 Descending Denver Center
11:10AM 40.6778 -105.7153 150° Southeast 215 247 17,500 -480 Descending Denver Center
11:11AM 40.6261 -105.6733 148° Southeast 217 250 17,000 -240 Descending Denver Center
11:12AM 40.5767 -105.6317 147° Southeast 210 242 17,000  Level Denver Center
11:13AM 40.5297 -105.5900 146° Southeast 206 237 17,000  Level Denver Center
11:14AM 40.4831 -105.5494 147° Southeast 203 234 17,000 -240 Level Denver Center
11:15AM 40.4253 -105.5014 148° Southeast 204 235 16,600 -600 Descending Denver Center
11:17AM 40.3725 -105.4600 149° Southeast 215 247 15,800 -900 Descending Denver Center
11:18AM 40.3183 -105.4139 147° Southeast 230 265 14,800 -1,200 Descending Denver Center
11:19AM 40.2683 -105.3478 135° Southeast 236 272 13,400 -1,440 Descending Denver Center
11:20AM 40.2186 -105.2917 139° Southeast 235 270 11,900 -1,200 Descending Denver Center
11:21AM 40.1647 -105.2869 176° South 219 252 11,000 -1,140 Descending Denver Center
11:22AM 40.0950 -105.2769 174° South 215 247 9,600 -1,260 Descending Denver Center
11:23AM 40.0367 -105.2689 174° South 211 243 8,400 -900 Descending Denver Center
11:24AM 39.9803 -105.2542 169° South 198 228 7,800 -360 Descending Denver Center
11:25AM 39.9547 -105.2044 124° Southeast 163 188 7,700 -600 Descending Denver Center
11:26AM 39.9308 -105.1589 124° Southeast 143 165 6,600 -1,020 Descending Denver Center
11:27AM 39.9133 -105.1261 125° Southeast 113 130 5,700 -900 Descending Denver Center
11:29AM 39.9088 -105.1172 95° East  Level Estimated
11:36AM 39.9088 -105.1172 298° West  Level Estimated
11:37AM 39.9088 -105.1172 177° South  Level Estimated